Allendale, Massachusetts
Current Conditions -  °F | °C
As of 11:01 AM on Thursday 23 Oct 2014 (Local Time) from KPSF Reporting Station
Moderate Rain Moderate Rain  
Wind Chill: 38°   Ceiling: 4400
Heat Index: 43°   Visibility: 3mi
Dew Point: 42°   Wind: 8mph
Humidity: 97%   Direction: 300°WNW
Pressure: 29.74"   Gusts: NA
Location:  42.4608°N, 73.282°W
Report Text: KPSF 231501Z AUTO 30007KT 3SM RA BR SCT012 BKN044 OVC080 06/06 A2974 RMK AO2 P0002 T00610056
Loading
Personal Weather Stations






























Interactive Weather Map New forecast layout! Learn more

10-Day Weather Forecast

Advertisements
Track Severe Weather on mobile